sensor_id;sensor_type;location;lat;lon;timestamp;temperature;humidity
11944;DHT22;6031;50.220;10.122;2023-08-12T00:00:50;16.60;99.90
11944;DHT22;6031;50.220;10.122;2023-08-12T00:03:16;16.60;99.90
11944;DHT22;6031;50.220;10.122;2023-08-12T00:05:42;16.60;99.90
11944;DHT22;6031;50.220;10.122;2023-08-12T00:08:08;16.60;99.90
11944;DHT22;6031;50.220;10.122;2023-08-12T00:10:34;16.50;99.90
11944;DHT22;6031;50.220;10.122;2023-08-12T00:12:59;16.40;1.00
11944;DHT22;6031;50.220;10.122;2023-08-12T00:15:25;16.40;1.00
11944;DHT22;6031;50.220;10.122;2023-08-12T00:17:50;16.50;1.00
11944;DHT22;6031;50.220;10.122;2023-08-12T00:20:16;16.40;1.00
11944;DHT22;6031;50.220;10.122;2023-08-12T00:22:42;16.40;1.00
11944;DHT22;6031;50.220;10.122;2023-08-12T00:25:08;16.40;1.00
11944;DHT22;6031;50.220;10.122;2023-08-12T00:27:34;16.50;1.00
11944;DHT22;6031;50.220;10.122;2023-08-12T00:30:00;16.60;99.90
11944;DHT22;6031;50.220;10.122;2023-08-12T00:32:25;16.50;53.40
11944;DHT22;6031;50.220;10.122;2023-08-12T00:34:51;16.40;99.90
11944;DHT22;6031;50.220;10.122;2023-08-12T00:37:16;16.40;1.00
11944;DHT22;6031;50.220;10.122;2023-08-12T00:39:42;16.40;1.00
11944;DHT22;6031;50.220;10.122;2023-08-12T00:42:07;16.50;1.00
11944;DHT22;6031;50.220;10.122;2023-08-12T00:44:33;16.60;97.60
11944;DHT22;6031;50.220;10.122;2023-08-12T00:46:59;16.70;99.90
11944;DHT22;6031;50.220;10.122;2023-08-12T00:49:27;16.60;1.00
11944;DHT22;6031;50.220;10.122;2023-08-12T00:51:53;16.60;1.00
11944;DHT22;6031;50.220;10.122;2023-08-12T00:54:21;16.70;1.00
11944;DHT22;6031;50.220;10.122;2023-08-12T00:56:48;16.80;99.90
11944;DHT22;6031;50.220;10.122;2023-08-12T00:59:14;16.80;99.90
11944;DHT22;6031;50.220;10.122;2023-08-12T01:01:41;16.80;99.90
11944;DHT22;6031;50.220;10.122;2023-08-12T01:04:07;16.80;99.90
11944;DHT22;6031;50.220;10.122;2023-08-12T01:06:33;16.70;99.90
11944;DHT22;6031;50.220;10.122;2023-08-12T01:08:59;16.70;99.90
11944;DHT22;6031;50.220;10.122;2023-08-12T01:11:49;16.70;99.90
11944;DHT22;6031;50.220;10.122;2023-08-12T01:14:25;16.60;99.90
11944;DHT22;6031;50.220;10.122;2023-08-12T01:17:09;16.60;1.00
11944;DHT22;6031;50.220;10.122;2023-08-12T01:19:38;16.60;99.90
11944;DHT22;6031;50.220;10.122;2023-08-12T01:22:06;16.60;99.90
11944;DHT22;6031;50.220;10.122;2023-08-12T01:27:03;16.40;1.00
11944;DHT22;6031;50.220;10.122;2023-08-12T01:29:28;16.40;1.00
11944;DHT22;6031;50.220;10.122;2023-08-12T01:32:01;16.30;1.00
11944;DHT22;6031;50.220;10.122;2023-08-12T01:34:36;16.30;1.00
11944;DHT22;6031;50.220;10.122;2023-08-12T01:37:05;16.30;1.00
11944;DHT22;6031;50.220;10.122;2023-08-12T01:39:33;16.40;1.00
11944;DHT22;6031;50.220;10.122;2023-08-12T01:41:59;16.40;1.00
11944;DHT22;6031;50.220;10.122;2023-08-12T01:44:25;16.40;1.00
11944;DHT22;6031;50.220;10.122;2023-08-12T01:46:51;16.40;1.00
11944;DHT22;6031;50.220;10.122;2023-08-12T01:49:17;16.50;1.00
11944;DHT22;6031;50.220;10.122;2023-08-12T01:51:42;16.40;1.00
11944;DHT22;6031;50.220;10.122;2023-08-12T01:54:08;16.40;1.00
11944;DHT22;6031;50.220;10.122;2023-08-12T01:56:33;16.30;1.00
11944;DHT22;6031;50.220;10.122;2023-08-12T01:58:59;16.40;1.00
11944;DHT22;6031;50.220;10.122;2023-08-12T02:01:25;16.40;1.00
11944;DHT22;6031;50.220;10.122;2023-08-12T02:03:50;16.30;1.00
11944;DHT22;6031;50.220;10.122;2023-08-12T02:06:16;16.30;1.00
11944;DHT22;6031;50.220;10.122;2023-08-12T02:08:41;16.20;1.00
11944;DHT22;6031;50.220;10.122;2023-08-12T02:11:07;16.20;1.00
11944;DHT22;6031;50.220;10.122;2023-08-12T02:13:32;16.20;1.00
11944;DHT22;6031;50.220;10.122;2023-08-12T02:15:58;16.20;16.30
11944;DHT22;6031;50.220;10.122;2023-08-12T02:18:23;16.20;3.30
11944;DHT22;6031;50.220;10.122;2023-08-12T02:20:49;16.20;1.00
11944;DHT22;6031;50.220;10.122;2023-08-12T02:23:14;16.30;1.00
11944;DHT22;6031;50.220;10.122;2023-08-12T02:25:40;16.30;1.00
11944;DHT22;6031;50.220;10.122;2023-08-12T02:28:05;16.30;1.00
11944;DHT22;6031;50.220;10.122;2023-08-12T02:30:31;16.20;1.00
11944;DHT22;6031;50.220;10.122;2023-08-12T02:32:56;16.20;29.00
11944;DHT22;6031;50.220;10.122;2023-08-12T02:35:22;16.20;99.90
11944;DHT22;6031;50.220;10.122;2023-08-12T02:37:48;16.20;99.90
11944;DHT22;6031;50.220;10.122;2023-08-12T02:40:14;16.30;99.90
11944;DHT22;6031;50.220;10.122;2023-08-12T02:42:39;16.30;99.90
11944;DHT22;6031;50.220;10.122;2023-08-12T02:45:05;16.30;99.90
11944;DHT22;6031;50.220;10.122;2023-08-12T02:47:31;16.30;99.90
11944;DHT22;6031;50.220;10.122;2023-08-12T02:49:56;16.30;99.90
11944;DHT22;6031;50.220;10.122;2023-08-12T02:52:22;16.30;99.90
11944;DHT22;6031;50.220;10.122;2023-08-12T02:54:48;16.30;99.10
11944;DHT22;6031;50.220;10.122;2023-08-12T02:57:13;16.30;95.00
11944;DHT22;6031;50.220;10.122;2023-08-12T02:59:39;16.30;61.10
11944;DHT22;6031;50.220;10.122;2023-08-12T03:02:04;16.30;32.00
11944;DHT22;6031;50.220;10.122;2023-08-12T03:04:30;16.20;35.70
11944;DHT22;6031;50.220;10.122;2023-08-12T03:06:55;16.20;34.40
11944;DHT22;6031;50.220;10.122;2023-08-12T03:09:21;16.20;58.40
11944;DHT22;6031;50.220;10.122;2023-08-12T03:11:46;16.10;99.90
11944;DHT22;6031;50.220;10.122;2023-08-12T03:14:12;16.10;99.90
11944;DHT22;6031;50.220;10.122;2023-08-12T03:16:38;16.30;34.80
11944;DHT22;6031;50.220;10.122;2023-08-12T03:19:03;16.30;1.00
11944;DHT22;6031;50.220;10.122;2023-08-12T03:21:29;16.40;8.10
11944;DHT22;6031;50.220;10.122;2023-08-12T03:23:54;16.30;30.20
11944;DHT22;6031;50.220;10.122;2023-08-12T03:26:20;16.30;80.40
11944;DHT22;6031;50.220;10.122;2023-08-12T03:28:46;16.20;99.90
11944;DHT22;6031;50.220;10.122;2023-08-12T03:31:11;16.20;99.90
11944;DHT22;6031;50.220;10.122;2023-08-12T03:33:37;16.20;99.90
11944;DHT22;6031;50.220;10.122;2023-08-12T03:36:03;16.30;50.70
11944;DHT22;6031;50.220;10.122;2023-08-12T03:38:28;16.40;1.00
11944;DHT22;6031;50.220;10.122;2023-08-12T03:40:54;16.30;63.30
11944;DHT22;6031;50.220;10.122;2023-08-12T03:43:19;16.40;49.10
11944;DHT22;6031;50.220;10.122;2023-08-12T03:45:45;16.50;55.20
11944;DHT22;6031;50.220;10.122;2023-08-12T03:48:11;16.40;62.00
11944;DHT22;6031;50.220;10.122;2023-08-12T03:50:37;16.40;99.90
11944;DHT22;6031;50.220;10.122;2023-08-12T03:53:03;16.50;99.90
11944;DHT22;6031;50.220;10.122;2023-08-12T03:55:32;16.50;99.90
11944;DHT22;6031;50.220;10.122;2023-08-12T03:57:59;16.50;99.90
11944;DHT22;6031;50.220;10.122;2023-08-12T04:00:25;16.30;99.90
11944;DHT22;6031;50.220;10.122;2023-08-12T04:02:50;16.40;99.90
11944;DHT22;6031;50.220;10.122;2023-08-12T04:05:16;16.30;99.90
11944;DHT22;6031;50.220;10.122;2023-08-12T04:07:42;16.30;99.90
11944;DHT22;6031;50.220;10.122;2023-08-12T04:10:08;16.30;99.90
11944;DHT22;6031;50.220;10.122;2023-08-12T04:12:34;16.30;99.90
11944;DHT22;6031;50.220;10.122;2023-08-12T04:15:00;16.30;99.90
11944;DHT22;6031;50.220;10.122;2023-08-12T04:17:29;16.30;99.90
11944;DHT22;6031;50.220;10.122;2023-08-12T04:19:55;16.50;99.90
11944;DHT22;6031;50.220;10.122;2023-08-12T04:22:20;16.50;99.90
11944;DHT22;6031;50.220;10.122;2023-08-12T04:24:46;16.40;99.90
11944;DHT22;6031;50.220;10.122;2023-08-12T04:27:11;16.50;99.90
11944;DHT22;6031;50.220;10.122;2023-08-12T04:29:37;16.60;99.90
11944;DHT22;6031;50.220;10.122;2023-08-12T04:32:02;16.70;99.90
11944;DHT22;6031;50.220;10.122;2023-08-12T04:34:28;16.70;99.90
11944;DHT22;6031;50.220;10.122;2023-08-12T04:36:53;16.70;99.90
11944;DHT22;6031;50.220;10.122;2023-08-12T04:39:19;16.60;88.80
11944;DHT22;6031;50.220;10.122;2023-08-12T04:41:44;16.60;85.00
11944;DHT22;6031;50.220;10.122;2023-08-12T04:44:10;16.70;99.90
11944;DHT22;6031;50.220;10.122;2023-08-12T04:46:35;16.80;99.90
11944;DHT22;6031;50.220;10.122;2023-08-12T04:49:01;16.80;99.90
11944;DHT22;6031;50.220;10.122;2023-08-12T04:51:26;17.00;76.90
11944;DHT22;6031;50.220;10.122;2023-08-12T04:53:52;17.10;1.00
11944;DHT22;6031;50.220;10.122;2023-08-12T04:56:17;17.20;1.00
11944;DHT22;6031;50.220;10.122;2023-08-12T04:58:43;17.20;1.00
11944;DHT22;6031;50.220;10.122;2023-08-12T05:01:09;17.30;1.00
11944;DHT22;6031;50.220;10.122;2023-08-12T05:03:34;17.30;1.00
11944;DHT22;6031;50.220;10.122;2023-08-12T05:06:00;17.40;1.00
11944;DHT22;6031;50.220;10.122;2023-08-12T05:08:25;17.40;1.00
11944;DHT22;6031;50.220;10.122;2023-08-12T05:10:51;17.40;1.00
11944;DHT22;6031;50.220;10.122;2023-08-12T05:13:17;17.40;5.60
11944;DHT22;6031;50.220;10.122;2023-08-12T05:15:47;17.50;1.00
11944;DHT22;6031;50.220;10.122;2023-08-12T05:18:13;17.60;1.00
11944;DHT22;6031;50.220;10.122;2023-08-12T05:20:40;17.70;1.00
11944;DHT22;6031;50.220;10.122;2023-08-12T05:23:06;17.70;1.00
11944;DHT22;6031;50.220;10.122;2023-08-12T05:25:31;17.70;1.00
11944;DHT22;6031;50.220;10.122;2023-08-12T05:27:57;17.70;1.00
11944;DHT22;6031;50.220;10.122;2023-08-12T05:30:22;17.60;1.00
11944;DHT22;6031;50.220;10.122;2023-08-12T05:32:48;17.60;36.90
11944;DHT22;6031;50.220;10.122;2023-08-12T05:35:13;17.50;67.20
11944;DHT22;6031;50.220;10.122;2023-08-12T05:37:39;17.40;2.40
11944;DHT22;6031;50.220;10.122;2023-08-12T05:40:05;17.40;1.70
11944;DHT22;6031;50.220;10.122;2023-08-12T05:42:34;17.40;14.30
11944;DHT22;6031;50.220;10.122;2023-08-12T05:44:59;17.40;7.80
11944;DHT22;6031;50.220;10.122;2023-08-12T05:47:25;17.50;20.50
11944;DHT22;6031;50.220;10.122;2023-08-12T05:49:50;17.60;22.30
11944;DHT22;6031;50.220;10.122;2023-08-12T05:52:16;17.70;1.00
11944;DHT22;6031;50.220;10.122;2023-08-12T05:54:41;17.70;1.00
11944;DHT22;6031;50.220;10.122;2023-08-12T05:57:07;17.80;1.00
11944;DHT22;6031;50.220;10.122;2023-08-12T05:59:32;17.90;1.00
11944;DHT22;6031;50.220;10.122;2023-08-12T06:01:58;18.00;1.00
11944;DHT22;6031;50.220;10.122;2023-08-12T06:04:23;18.10;1.00
11944;DHT22;6031;50.220;10.122;2023-08-12T06:06:50;18.30;99.90
11944;DHT22;6031;50.220;10.122;2023-08-12T06:09:15;18.40;1.00
11944;DHT22;6031;50.220;10.122;2023-08-12T06:11:41;18.50;1.00
11944;DHT22;6031;50.220;10.122;2023-08-12T06:14:06;18.50;99.90
11944;DHT22;6031;50.220;10.122;2023-08-12T06:16:32;18.50;1.00
11944;DHT22;6031;50.220;10.122;2023-08-12T06:18:57;18.60;1.00
11944;DHT22;6031;50.220;10.122;2023-08-12T06:21:23;18.70;1.00
11944;DHT22;6031;50.220;10.122;2023-08-12T06:23:48;18.60;99.90
11944;DHT22;6031;50.220;10.122;2023-08-12T06:26:14;18.50;1.00
11944;DHT22;6031;50.220;10.122;2023-08-12T06:28:39;18.60;1.00
11944;DHT22;6031;50.220;10.122;2023-08-12T06:31:05;18.70;99.90
11944;DHT22;6031;50.220;10.122;2023-08-12T06:33:30;18.70;1.00
11944;DHT22;6031;50.220;10.122;2023-08-12T06:35:56;18.80;99.90
11944;DHT22;6031;50.220;10.122;2023-08-12T06:38:21;18.90;1.00
11944;DHT22;6031;50.220;10.122;2023-08-12T06:40:47;19.00;99.90
11944;DHT22;6031;50.220;10.122;2023-08-12T06:43:12;19.20;99.90
11944;DHT22;6031;50.220;10.122;2023-08-12T06:45:38;19.30;1.00
11944;DHT22;6031;50.220;10.122;2023-08-12T06:48:04;19.30;1.00
11944;DHT22;6031;50.220;10.122;2023-08-12T06:50:29;19.40;99.90
11944;DHT22;6031;50.220;10.122;2023-08-12T06:52:56;19.50;1.00
11944;DHT22;6031;50.220;10.122;2023-08-12T06:55:21;19.70;1.00
11944;DHT22;6031;50.220;10.122;2023-08-12T06:57:47;19.80;1.00
11944;DHT22;6031;50.220;10.122;2023-08-12T07:00:12;19.90;1.00
11944;DHT22;6031;50.220;10.122;2023-08-12T07:02:38;20.00;1.00
11944;DHT22;6031;50.220;10.122;2023-08-12T07:05:07;20.00;99.90
11944;DHT22;6031;50.220;10.122;2023-08-12T07:07:32;20.10;1.00
11944;DHT22;6031;50.220;10.122;2023-08-12T07:09:58;20.30;1.00
11944;DHT22;6031;50.220;10.122;2023-08-12T07:12:23;20.70;1.00
11944;DHT22;6031;50.220;10.122;2023-08-12T07:14:49;20.90;1.00
11944;DHT22;6031;50.220;10.122;2023-08-12T07:17:14;21.10;99.90
11944;DHT22;6031;50.220;10.122;2023-08-12T07:19:40;21.40;92.90
11944;DHT22;6031;50.220;10.122;2023-08-12T07:22:05;21.70;1.00
11944;DHT22;6031;50.220;10.122;2023-08-12T07:24:31;22.00;1.00
11944;DHT22;6031;50.220;10.122;2023-08-12T07:26:56;22.40;99.90
11944;DHT22;6031;50.220;10.122;2023-08-12T07:29:22;22.70;99.90
11944;DHT22;6031;50.220;10.122;2023-08-12T07:31:47;23.40;4.10
11944;DHT22;6031;50.220;10.122;2023-08-12T07:34:13;24.80;99.90
11944;DHT22;6031;50.220;10.122;2023-08-12T07:36:39;25.70;91.60
11944;DHT22;6031;50.220;10.122;2023-08-12T07:39:06;26.80;1.00
11944;DHT22;6031;50.220;10.122;2023-08-12T07:41:31;27.20;1.00
11944;DHT22;6031;50.220;10.122;2023-08-12T07:43:57;27.30;1.00
11944;DHT22;6031;50.220;10.122;2023-08-12T07:46:22;28.10;1.00
11944;DHT22;6031;50.220;10.122;2023-08-12T07:48:48;29.00;1.00
11944;DHT22;6031;50.220;10.122;2023-08-12T07:51:14;29.10;1.00
11944;DHT22;6031;50.220;10.122;2023-08-12T07:53:40;28.70;1.00
11944;DHT22;6031;50.220;10.122;2023-08-12T07:56:05;27.50;1.00
11944;DHT22;6031;50.220;10.122;2023-08-12T07:58:31;27.50;1.00
11944;DHT22;6031;50.220;10.122;2023-08-12T08:00:56;27.70;1.00
11944;DHT22;6031;50.220;10.122;2023-08-12T08:03:22;28.20;1.00
11944;DHT22;6031;50.220;10.122;2023-08-12T08:05:47;28.20;1.00
11944;DHT22;6031;50.220;10.122;2023-08-12T08:08:13;27.50;1.00
11944;DHT22;6031;50.220;10.122;2023-08-12T08:10:39;26.90;1.00
11944;DHT22;6031;50.220;10.122;2023-08-12T08:13:05;27.70;1.00
11944;DHT22;6031;50.220;10.122;2023-08-12T08:15:30;28.50;1.00
11944;DHT22;6031;50.220;10.122;2023-08-12T08:17:56;29.30;1.00
11944;DHT22;6031;50.220;10.122;2023-08-12T08:20:22;30.60;1.00
11944;DHT22;6031;50.220;10.122;2023-08-12T08:22:48;32.30;1.00
11944;DHT22;6031;50.220;10.122;2023-08-12T08:25:14;32.40;1.00
11944;DHT22;6031;50.220;10.122;2023-08-12T08:27:39;32.80;1.00
11944;DHT22;6031;50.220;10.122;2023-08-12T08:30:06;33.00;1.00
11944;DHT22;6031;50.220;10.122;2023-08-12T08:32:32;33.10;1.00
11944;DHT22;6031;50.220;10.122;2023-08-12T08:34:57;31.50;1.00
11944;DHT22;6031;50.220;10.122;2023-08-12T08:37:23;32.10;1.00
11944;DHT22;6031;50.220;10.122;2023-08-12T08:39:48;33.30;1.00
11944;DHT22;6031;50.220;10.122;2023-08-12T08:42:15;34.60;1.00
11944;DHT22;6031;50.220;10.122;2023-08-12T08:44:42;35.10;99.90
11944;DHT22;6031;50.220;10.122;2023-08-12T08:47:08;36.00;99.90
11944;DHT22;6031;50.220;10.122;2023-08-12T08:49:34;35.90;99.90
11944;DHT22;6031;50.220;10.122;2023-08-12T08:52:01;34.40;99.90
11944;DHT22;6031;50.220;10.122;2023-08-12T08:54:27;32.80;99.90
11944;DHT22;6031;50.220;10.122;2023-08-12T08:56:53;31.00;1.00
11944;DHT22;6031;50.220;10.122;2023-08-12T08:59:19;29.70;1.00
11944;DHT22;6031;50.220;10.122;2023-08-12T09:01:46;30.80;1.00
11944;DHT22;6031;50.220;10.122;2023-08-12T09:04:15;32.70;1.00
11944;DHT22;6031;50.220;10.122;2023-08-12T09:06:42;33.30;99.90
11944;DHT22;6031;50.220;10.122;2023-08-12T09:09:10;34.10;99.90
11944;DHT22;6031;50.220;10.122;2023-08-12T09:11:39;36.10;99.90
11944;DHT22;6031;50.220;10.122;2023-08-12T09:14:05;36.40;99.90
11944;DHT22;6031;50.220;10.122;2023-08-12T09:16:31;35.60;99.90
11944;DHT22;6031;50.220;10.122;2023-08-12T09:18:57;34.50;99.90
11944;DHT22;6031;50.220;10.122;2023-08-12T09:21:23;34.40;99.90
11944;DHT22;6031;50.220;10.122;2023-08-12T09:23:48;35.10;99.90
11944;DHT22;6031;50.220;10.122;2023-08-12T09:26:16;35.30;99.90
11944;DHT22;6031;50.220;10.122;2023-08-12T09:28:42;34.70;99.90
11944;DHT22;6031;50.220;10.122;2023-08-12T09:31:08;34.30;99.90
11944;DHT22;6031;50.220;10.122;2023-08-12T09:33:46;35.20;99.90
11944;DHT22;6031;50.220;10.122;2023-08-12T09:36:12;36.90;99.90
11944;DHT22;6031;50.220;10.122;2023-08-12T09:38:37;37.40;99.90
11944;DHT22;6031;50.220;10.122;2023-08-12T09:41:03;38.10;99.90
11944;DHT22;6031;50.220;10.122;2023-08-12T09:43:29;38.70;99.90
11944;DHT22;6031;50.220;10.122;2023-08-12T09:45:57;37.10;99.90
11944;DHT22;6031;50.220;10.122;2023-08-12T09:48:26;35.20;99.90
11944;DHT22;6031;50.220;10.122;2023-08-12T09:50:55;33.00;99.90
11944;DHT22;6031;50.220;10.122;2023-08-12T09:53:22;32.60;99.90
11944;DHT22;6031;50.220;10.122;2023-08-12T09:55:48;32.70;99.90
11944;DHT22;6031;50.220;10.122;2023-08-12T09:58:18;31.60;99.90
11944;DHT22;6031;50.220;10.122;2023-08-12T10:00:46;30.90;99.90
11944;DHT22;6031;50.220;10.122;2023-08-12T10:03:13;30.60;1.00
11944;DHT22;6031;50.220;10.122;2023-08-12T10:05:40;30.50;1.00
11944;DHT22;6031;50.220;10.122;2023-08-12T10:08:07;30.20;1.00
11944;DHT22;6031;50.220;10.122;2023-08-12T10:10:34;29.50;1.00
11944;DHT22;6031;50.220;10.122;2023-08-12T10:13:01;29.00;1.00
11944;DHT22;6031;50.220;10.122;2023-08-12T10:15:26;28.70;1.00
11944;DHT22;6031;50.220;10.122;2023-08-12T10:17:52;27.80;30.00
11944;DHT22;6031;50.220;10.122;2023-08-12T10:20:23;27.00;1.00
11944;DHT22;6031;50.220;10.122;2023-08-12T10:22:49;26.10;99.90
11944;DHT22;6031;50.220;10.122;2023-08-12T10:25:15;25.80;99.90
11944;DHT22;6031;50.220;10.122;2023-08-12T10:27:43;26.40;1.00
11944;DHT22;6031;50.220;10.122;2023-08-12T10:30:09;26.80;99.90
11944;DHT22;6031;50.220;10.122;2023-08-12T10:32:36;27.20;1.00
11944;DHT22;6031;50.220;10.122;2023-08-12T10:35:02;28.80;1.00
11944;DHT22;6031;50.220;10.122;2023-08-12T10:37:32;31.40;1.00
11944;DHT22;6031;50.220;10.122;2023-08-12T10:39:59;33.90;1.00
11944;DHT22;6031;50.220;10.122;2023-08-12T10:42:47;35.10;1.00
11944;DHT22;6031;50.220;10.122;2023-08-12T10:45:15;35.80;1.00
11944;DHT22;6031;50.220;10.122;2023-08-12T10:47:42;36.90;1.00
11944;DHT22;6031;50.220;10.122;2023-08-12T10:50:22;37.60;1.00
11944;DHT22;6031;50.220;10.122;2023-08-12T10:52:54;38.90;1.00
11944;DHT22;6031;50.220;10.122;2023-08-12T10:55:21;38.90;99.90
11944;DHT22;6031;50.220;10.122;2023-08-12T10:57:51;38.80;99.90
11944;DHT22;6031;50.220;10.122;2023-08-12T11:00:20;36.00;99.90
11944;DHT22;6031;50.220;10.122;2023-08-12T11:02:53;34.80;1.00
11944;DHT22;6031;50.220;10.122;2023-08-12T11:05:19;34.80;1.00
11944;DHT22;6031;50.220;10.122;2023-08-12T11:07:47;36.70;1.00
11944;DHT22;6031;50.220;10.122;2023-08-12T11:10:22;35.70;99.90
11944;DHT22;6031;50.220;10.122;2023-08-12T11:12:48;36.60;99.90
11944;DHT22;6031;50.220;10.122;2023-08-12T11:15:29;38.60;99.90
11944;DHT22;6031;50.220;10.122;2023-08-12T11:17:54;39.50;99.90
11944;DHT22;6031;50.220;10.122;2023-08-12T11:20:21;37.80;99.90
11944;DHT22;6031;50.220;10.122;2023-08-12T11:22:46;37.40;99.90
11944;DHT22;6031;50.220;10.122;2023-08-12T11:25:14;38.50;99.90
11944;DHT22;6031;50.220;10.122;2023-08-12T11:27:47;37.70;99.90
11944;DHT22;6031;50.220;10.122;2023-08-12T11:30:14;36.80;99.90
11944;DHT22;6031;50.220;10.122;2023-08-12T11:32:45;35.80;99.90
11944;DHT22;6031;50.220;10.122;2023-08-12T11:35:12;35.00;99.90
11944;DHT22;6031;50.220;10.122;2023-08-12T11:37:39;33.70;99.90
11944;DHT22;6031;50.220;10.122;2023-08-12T11:40:06;32.80;99.90
11944;DHT22;6031;50.220;10.122;2023-08-12T11:42:34;33.90;99.90
11944;DHT22;6031;50.220;10.122;2023-08-12T11:45:00;36.00;99.90
11944;DHT22;6031;50.220;10.122;2023-08-12T11:47:25;38.50;1.00
11944;DHT22;6031;50.220;10.122;2023-08-12T11:49:52;39.60;99.90
11944;DHT22;6031;50.220;10.122;2023-08-12T11:52:19;39.20;99.90
11944;DHT22;6031;50.220;10.122;2023-08-12T11:57:11;37.60;99.90
11944;DHT22;6031;50.220;10.122;2023-08-12T11:59:37;36.70;99.90
11944;DHT22;6031;50.220;10.122;2023-08-12T12:02:03;36.00;99.90
11944;DHT22;6031;50.220;10.122;2023-08-12T12:04:32;35.20;99.90
11944;DHT22;6031;50.220;10.122;2023-08-12T12:06:58;33.80;99.90
11944;DHT22;6031;50.220;10.122;2023-08-12T12:09:24;33.10;99.90
11944;DHT22;6031;50.220;10.122;2023-08-12T12:11:52;32.40;99.90
11944;DHT22;6031;50.220;10.122;2023-08-12T12:14:20;31.40;99.90
11944;DHT22;6031;50.220;10.122;2023-08-12T12:16:47;30.40;1.00
11944;DHT22;6031;50.220;10.122;2023-08-12T12:19:18;29.40;1.00
11944;DHT22;6031;50.220;10.122;2023-08-12T12:21:51;28.60;1.00
11944;DHT22;6031;50.220;10.122;2023-08-12T12:24:17;27.50;1.00
11944;DHT22;6031;50.220;10.122;2023-08-12T12:26:44;25.40;99.90
11944;DHT22;6031;50.220;10.122;2023-08-12T12:29:10;23.40;1.00
11944;DHT22;6031;50.220;10.122;2023-08-12T12:31:40;22.10;1.00
11944;DHT22;6031;50.220;10.122;2023-08-12T12:34:07;21.00;99.90
11944;DHT22;6031;50.220;10.122;2023-08-12T12:36:37;20.30;99.90
11944;DHT22;6031;50.220;10.122;2023-08-12T12:39:03;20.00;99.90
11944;DHT22;6031;50.220;10.122;2023-08-12T12:41:30;19.70;99.90
11944;DHT22;6031;50.220;10.122;2023-08-12T12:43:56;19.70;99.90
11944;DHT22;6031;50.220;10.122;2023-08-12T12:46:22;19.60;99.90
11944;DHT22;6031;50.220;10.122;2023-08-12T12:48:47;19.60;99.90
11944;DHT22;6031;50.220;10.122;2023-08-12T12:51:13;19.40;99.90
11944;DHT22;6031;50.220;10.122;2023-08-12T12:53:39;19.20;99.90
11944;DHT22;6031;50.220;10.122;2023-08-12T12:56:05;19.10;99.90
11944;DHT22;6031;50.220;10.122;2023-08-12T12:58:35;19.10;99.90
11944;DHT22;6031;50.220;10.122;2023-08-12T13:01:01;19.10;99.90
11944;DHT22;6031;50.220;10.122;2023-08-12T13:03:27;19.10;99.90
11944;DHT22;6031;50.220;10.122;2023-08-12T13:05:53;19.10;99.90
11944;DHT22;6031;50.220;10.122;2023-08-12T13:08:19;19.00;99.90
11944;DHT22;6031;50.220;10.122;2023-08-12T13:10:45;19.00;99.90
11944;DHT22;6031;50.220;10.122;2023-08-12T13:13:13;18.90;99.90
11944;DHT22;6031;50.220;10.122;2023-08-12T13:15:39;18.90;99.90
11944;DHT22;6031;50.220;10.122;2023-08-12T13:18:05;18.80;99.90
11944;DHT22;6031;50.220;10.122;2023-08-12T13:20:30;18.70;99.90
11944;DHT22;6031;50.220;10.122;2023-08-12T13:22:56;18.70;99.90
11944;DHT22;6031;50.220;10.122;2023-08-12T13:25:21;18.70;99.90
11944;DHT22;6031;50.220;10.122;2023-08-12T13:27:47;18.70;99.90
11944;DHT22;6031;50.220;10.122;2023-08-12T13:30:12;18.70;99.90
11944;DHT22;6031;50.220;10.122;2023-08-12T13:32:38;18.80;99.90
11944;DHT22;6031;50.220;10.122;2023-08-12T13:35:04;18.90;99.90
11944;DHT22;6031;50.220;10.122;2023-08-12T13:37:31;19.00;99.90
11944;DHT22;6031;50.220;10.122;2023-08-12T13:39:57;19.10;99.90
11944;DHT22;6031;50.220;10.122;2023-08-12T13:42:22;19.20;99.90
11944;DHT22;6031;50.220;10.122;2023-08-12T13:44:48;19.10;99.90
11944;DHT22;6031;50.220;10.122;2023-08-12T13:47:13;19.10;99.90
11944;DHT22;6031;50.220;10.122;2023-08-12T13:49:39;19.20;99.90
11944;DHT22;6031;50.220;10.122;2023-08-12T13:52:05;19.30;99.90
11944;DHT22;6031;50.220;10.122;2023-08-12T13:54:30;19.20;99.90
11944;DHT22;6031;50.220;10.122;2023-08-12T13:56:56;19.30;99.90
11944;DHT22;6031;50.220;10.122;2023-08-12T13:59:21;19.20;99.90
11944;DHT22;6031;50.220;10.122;2023-08-12T14:01:47;19.30;99.90
11944;DHT22;6031;50.220;10.122;2023-08-12T14:04:12;19.60;99.90
11944;DHT22;6031;50.220;10.122;2023-08-12T14:06:38;19.80;99.90
11944;DHT22;6031;50.220;10.122;2023-08-12T14:09:05;20.00;99.90
11944;DHT22;6031;50.220;10.122;2023-08-12T14:11:33;20.20;99.90
11944;DHT22;6031;50.220;10.122;2023-08-12T14:13:59;20.50;99.90
11944;DHT22;6031;50.220;10.122;2023-08-12T14:16:24;20.80;99.90
11944;DHT22;6031;50.220;10.122;2023-08-12T14:18:51;21.20;99.90
11944;DHT22;6031;50.220;10.122;2023-08-12T14:21:16;21.50;99.90
11944;DHT22;6031;50.220;10.122;2023-08-12T14:23:41;21.80;99.90
11944;DHT22;6031;50.220;10.122;2023-08-12T14:26:07;22.10;99.90
11944;DHT22;6031;50.220;10.122;2023-08-12T14:28:32;22.70;99.90
11944;DHT22;6031;50.220;10.122;2023-08-12T14:30:58;23.30;99.90
11944;DHT22;6031;50.220;10.122;2023-08-12T14:33:23;23.50;99.90
11944;DHT22;6031;50.220;10.122;2023-08-12T14:35:50;24.30;1.00
11944;DHT22;6031;50.220;10.122;2023-08-12T14:38:18;25.20;1.00
11944;DHT22;6031;50.220;10.122;2023-08-12T14:40:47;26.00;1.00
11944;DHT22;6031;50.220;10.122;2023-08-12T14:43:13;26.60;1.00
11944;DHT22;6031;50.220;10.122;2023-08-12T14:45:38;27.30;99.90
11944;DHT22;6031;50.220;10.122;2023-08-12T14:48:04;27.70;99.90
11944;DHT22;6031;50.220;10.122;2023-08-12T14:50:29;27.90;73.20
11944;DHT22;6031;50.220;10.122;2023-08-12T14:52:55;27.60;99.90
11944;DHT22;6031;50.220;10.122;2023-08-12T14:55:21;27.10;1.00
11944;DHT22;6031;50.220;10.122;2023-08-12T14:57:46;26.90;1.00
11944;DHT22;6031;50.220;10.122;2023-08-12T15:00:12;27.20;1.00
11944;DHT22;6031;50.220;10.122;2023-08-12T15:02:38;27.00;99.90
11944;DHT22;6031;50.220;10.122;2023-08-12T15:05:04;26.70;99.90
11944;DHT22;6031;50.220;10.122;2023-08-12T15:07:31;26.50;99.90
11944;DHT22;6031;50.220;10.122;2023-08-12T15:09:56;26.70;99.90
11944;DHT22;6031;50.220;10.122;2023-08-12T15:12:24;27.00;1.00
11944;DHT22;6031;50.220;10.122;2023-08-12T15:14:50;27.10;1.00
11944;DHT22;6031;50.220;10.122;2023-08-12T15:17:16;27.80;15.40
11944;DHT22;6031;50.220;10.122;2023-08-12T15:19:41;27.80;1.00
11944;DHT22;6031;50.220;10.122;2023-08-12T15:22:07;27.40;1.00
11944;DHT22;6031;50.220;10.122;2023-08-12T15:24:32;26.70;1.00
11944;DHT22;6031;50.220;10.122;2023-08-12T15:26:58;26.30;99.90
11944;DHT22;6031;50.220;10.122;2023-08-12T15:29:23;26.10;1.00
11944;DHT22;6031;50.220;10.122;2023-08-12T15:31:49;25.90;99.90
11944;DHT22;6031;50.220;10.122;2023-08-12T15:34:15;25.40;99.90
11944;DHT22;6031;50.220;10.122;2023-08-12T15:36:41;25.00;1.00